sensor_id;sensor_type;location;lat;lon;timestamp;P1;durP1;ratioP1;P2;durP2;ratioP2
7669;SDS011;3877;42.562;27.636;2024-02-28T00:01:48;35.83;;;11.07;;
7669;SDS011;3877;42.562;27.636;2024-02-28T00:04:16;40.57;;;10.83;;
7669;SDS011;3877;42.562;27.636;2024-02-28T00:06:43;36.73;;;10.63;;
7669;SDS011;3877;42.562;27.636;2024-02-28T00:09:11;33.20;;;11.47;;
7669;SDS011;3877;42.562;27.636;2024-02-28T00:11:41;43.93;;;11.67;;
7669;SDS011;3877;42.562;27.636;2024-02-28T00:14:08;34.70;;;10.70;;
7669;SDS011;3877;42.562;27.636;2024-02-28T00:16:44;36.37;;;10.67;;
7669;SDS011;3877;42.562;27.636;2024-02-28T00:19:11;37.93;;;11.80;;
7669;SDS011;3877;42.562;27.636;2024-02-28T00:21:40;38.13;;;10.87;;
7669;SDS011;3877;42.562;27.636;2024-02-28T00:24:07;34.97;;;10.27;;
7669;SDS011;3877;42.562;27.636;2024-02-28T00:26:34;32.03;;;10.53;;
7669;SDS011;3877;42.562;27.636;2024-02-28T00:29:01;32.00;;;10.00;;
7669;SDS011;3877;42.562;27.636;2024-02-28T00:31:28;36.13;;;10.33;;
7669;SDS011;3877;42.562;27.636;2024-02-28T00:33:55;39.30;;;11.87;;
7669;SDS011;3877;42.562;27.636;2024-02-28T00:36:22;47.63;;;12.37;;
7669;SDS011;3877;42.562;27.636;2024-02-28T00:38:51;29.67;;;10.40;;
7669;SDS011;3877;42.562;27.636;2024-02-28T00:41:18;32.00;;;11.10;;
7669;SDS011;3877;42.562;27.636;2024-02-28T00:43:45;38.23;;;11.30;;
7669;SDS011;3877;42.562;27.636;2024-02-28T00:46:11;30.03;;;11.07;;
7669;SDS011;3877;42.562;27.636;2024-02-28T00:48:39;30.20;;;11.03;;
7669;SDS011;3877;42.562;27.636;2024-02-28T00:51:06;34.50;;;10.77;;
7669;SDS011;3877;42.562;27.636;2024-02-28T00:53:33;28.37;;;10.40;;
7669;SDS011;3877;42.562;27.636;2024-02-28T00:56:02;28.87;;;11.03;;
7669;SDS011;3877;42.562;27.636;2024-02-28T00:58:29;31.70;;;10.57;;
7669;SDS011;3877;42.562;27.636;2024-02-28T01:00:56;30.23;;;11.30;;
7669;SDS011;3877;42.562;27.636;2024-02-28T01:03:23;35.27;;;11.07;;
7669;SDS011;3877;42.562;27.636;2024-02-28T01:05:50;28.83;;;10.87;;
7669;SDS011;3877;42.562;27.636;2024-02-28T01:08:17;28.20;;;10.97;;
7669;SDS011;3877;42.562;27.636;2024-02-28T01:10:44;32.70;;;11.37;;
7669;SDS011;3877;42.562;27.636;2024-02-28T01:13:13;26.90;;;10.13;;
7669;SDS011;3877;42.562;27.636;2024-02-28T01:15:40;37.67;;;10.50;;
7669;SDS011;3877;42.562;27.636;2024-02-28T01:18:07;28.43;;;10.00;;
7669;SDS011;3877;42.562;27.636;2024-02-28T01:20:34;32.37;;;10.43;;
7669;SDS011;3877;42.562;27.636;2024-02-28T01:23:01;24.57;;;10.37;;
7669;SDS011;3877;42.562;27.636;2024-02-28T01:25:28;30.00;;;10.43;;
7669;SDS011;3877;42.562;27.636;2024-02-28T01:27:55;31.13;;;11.13;;
7669;SDS011;3877;42.562;27.636;2024-02-28T01:30:24;28.40;;;11.37;;
7669;SDS011;3877;42.562;27.636;2024-02-28T01:32:51;29.27;;;11.93;;
7669;SDS011;3877;42.562;27.636;2024-02-28T01:35:18;28.93;;;11.20;;
7669;SDS011;3877;42.562;27.636;2024-02-28T01:37:45;27.90;;;10.80;;
7669;SDS011;3877;42.562;27.636;2024-02-28T01:40:12;30.30;;;10.57;;
7669;SDS011;3877;42.562;27.636;2024-02-28T01:42:39;27.87;;;11.67;;
7669;SDS011;3877;42.562;27.636;2024-02-28T01:45:07;29.33;;;11.37;;
7669;SDS011;3877;42.562;27.636;2024-02-28T01:47:36;32.47;;;11.07;;
7669;SDS011;3877;42.562;27.636;2024-02-28T01:50:03;24.90;;;10.20;;
7669;SDS011;3877;42.562;27.636;2024-02-28T01:52:31;29.40;;;11.17;;
7669;SDS011;3877;42.562;27.636;2024-02-28T01:54:58;34.37;;;11.13;;
7669;SDS011;3877;42.562;27.636;2024-02-28T01:57:25;31.53;;;11.30;;
7669;SDS011;3877;42.562;27.636;2024-02-28T01:59:52;29.80;;;10.30;;
7669;SDS011;3877;42.562;27.636;2024-02-28T02:02:20;30.40;;;11.23;;
7669;SDS011;3877;42.562;27.636;2024-02-28T02:04:49;31.17;;;10.60;;
7669;SDS011;3877;42.562;27.636;2024-02-28T02:07:18;37.47;;;11.90;;
7669;SDS011;3877;42.562;27.636;2024-02-28T02:09:45;34.77;;;11.33;;
7669;SDS011;3877;42.562;27.636;2024-02-28T02:12:12;23.47;;;10.53;;
7669;SDS011;3877;42.562;27.636;2024-02-28T02:14:39;27.57;;;10.93;;
7669;SDS011;3877;42.562;27.636;2024-02-28T02:17:06;31.93;;;11.63;;
7669;SDS011;3877;42.562;27.636;2024-02-28T02:19:33;28.00;;;12.87;;
7669;SDS011;3877;42.562;27.636;2024-02-28T02:22:01;33.27;;;14.03;;
7669;SDS011;3877;42.562;27.636;2024-02-28T02:24:32;30.93;;;12.73;;
7669;SDS011;3877;42.562;27.636;2024-02-28T02:26:59;29.20;;;12.17;;
7669;SDS011;3877;42.562;27.636;2024-02-28T02:29:26;33.67;;;11.77;;
7669;SDS011;3877;42.562;27.636;2024-02-28T02:31:54;26.17;;;12.10;;
7669;SDS011;3877;42.562;27.636;2024-02-28T02:34:21;33.60;;;12.17;;
7669;SDS011;3877;42.562;27.636;2024-02-28T02:36:48;32.60;;;12.60;;
7669;SDS011;3877;42.562;27.636;2024-02-28T02:39:15;36.57;;;12.60;;
7669;SDS011;3877;42.562;27.636;2024-02-28T02:41:43;36.40;;;13.40;;
7669;SDS011;3877;42.562;27.636;2024-02-28T02:44:10;46.07;;;13.47;;
7669;SDS011;3877;42.562;27.636;2024-02-28T02:46:37;33.20;;;13.10;;
7669;SDS011;3877;42.562;27.636;2024-02-28T02:49:04;34.93;;;13.73;;
7669;SDS011;3877;42.562;27.636;2024-02-28T02:51:31;33.70;;;12.93;;
7669;SDS011;3877;42.562;27.636;2024-02-28T02:53:58;30.10;;;13.07;;
7669;SDS011;3877;42.562;27.636;2024-02-28T02:56:25;42.63;;;13.30;;
7669;SDS011;3877;42.562;27.636;2024-02-28T02:58:54;27.73;;;12.63;;
7669;SDS011;3877;42.562;27.636;2024-02-28T03:01:21;36.53;;;12.37;;
7669;SDS011;3877;42.562;27.636;2024-02-28T03:03:48;29.63;;;11.07;;
7669;SDS011;3877;42.562;27.636;2024-02-28T03:06:14;30.47;;;11.87;;
7669;SDS011;3877;42.562;27.636;2024-02-28T03:08:41;34.10;;;12.07;;
7669;SDS011;3877;42.562;27.636;2024-02-28T03:11:08;33.53;;;11.87;;
7669;SDS011;3877;42.562;27.636;2024-02-28T03:13:36;33.93;;;12.33;;
7669;SDS011;3877;42.562;27.636;2024-02-28T03:16:06;50.10;;;13.23;;
7669;SDS011;3877;42.562;27.636;2024-02-28T03:18:33;47.50;;;14.50;;
7669;SDS011;3877;42.562;27.636;2024-02-28T03:21:01;50.47;;;13.93;;
7669;SDS011;3877;42.562;27.636;2024-02-28T03:23:29;45.40;;;14.03;;
7669;SDS011;3877;42.562;27.636;2024-02-28T03:25:56;55.20;;;15.53;;
7669;SDS011;3877;42.562;27.636;2024-02-28T03:28:23;66.77;;;16.13;;
7669;SDS011;3877;42.562;27.636;2024-02-28T03:30:50;86.67;;;16.73;;
7669;SDS011;3877;42.562;27.636;2024-02-28T03:33:19;65.07;;;16.40;;
7669;SDS011;3877;42.562;27.636;2024-02-28T03:35:46;89.97;;;17.03;;
7669;SDS011;3877;42.562;27.636;2024-02-28T03:38:13;125.87;;;17.17;;
7669;SDS011;3877;42.562;27.636;2024-02-28T03:40:41;98.40;;;16.30;;
7669;SDS011;3877;42.562;27.636;2024-02-28T03:43:10;59.17;;;16.17;;
7669;SDS011;3877;42.562;27.636;2024-02-28T03:45:39;61.73;;;15.80;;
7669;SDS011;3877;42.562;27.636;2024-02-28T03:48:06;54.30;;;16.40;;
7669;SDS011;3877;42.562;27.636;2024-02-28T03:50:34;106.87;;;18.50;;
7669;SDS011;3877;42.562;27.636;2024-02-28T03:53:01;105.13;;;19.60;;
7669;SDS011;3877;42.562;27.636;2024-02-28T03:55:28;95.00;;;21.07;;
7669;SDS011;3877;42.562;27.636;2024-02-28T03:57:55;110.77;;;22.20;;
7669;SDS011;3877;42.562;27.636;2024-02-28T04:00:25;86.10;;;21.53;;
7669;SDS011;3877;42.562;27.636;2024-02-28T04:02:55;113.80;;;21.67;;
7669;SDS011;3877;42.562;27.636;2024-02-28T04:05:22;99.63;;;22.77;;
7669;SDS011;3877;42.562;27.636;2024-02-28T04:07:50;79.33;;;19.13;;
7669;SDS011;3877;42.562;27.636;2024-02-28T04:10:18;59.83;;;18.40;;
7669;SDS011;3877;42.562;27.636;2024-02-28T04:12:44;49.93;;;16.97;;
7669;SDS011;3877;42.562;27.636;2024-02-28T04:15:12;53.03;;;19.00;;
7669;SDS011;3877;42.562;27.636;2024-02-28T04:17:39;61.87;;;18.50;;
7669;SDS011;3877;42.562;27.636;2024-02-28T04:20:08;49.23;;;17.77;;
7669;SDS011;3877;42.562;27.636;2024-02-28T04:22:35;56.43;;;17.13;;
7669;SDS011;3877;42.562;27.636;2024-02-28T04:25:03;40.73;;;15.07;;
7669;SDS011;3877;42.562;27.636;2024-02-28T04:27:30;45.97;;;16.90;;
7669;SDS011;3877;42.562;27.636;2024-02-28T04:29:57;47.77;;;17.53;;
7669;SDS011;3877;42.562;27.636;2024-02-28T04:32:24;48.73;;;16.73;;
7669;SDS011;3877;42.562;27.636;2024-02-28T04:34:51;60.20;;;17.43;;
7669;SDS011;3877;42.562;27.636;2024-02-28T04:37:18;66.57;;;15.87;;
7669;SDS011;3877;42.562;27.636;2024-02-28T04:39:46;71.73;;;18.77;;
7669;SDS011;3877;42.562;27.636;2024-02-28T04:42:16;79.10;;;25.70;;
7669;SDS011;3877;42.562;27.636;2024-02-28T04:44:44;91.47;;;26.33;;
7669;SDS011;3877;42.562;27.636;2024-02-28T04:47:11;70.63;;;24.37;;
7669;SDS011;3877;42.562;27.636;2024-02-28T04:49:38;72.50;;;24.30;;
7669;SDS011;3877;42.562;27.636;2024-02-28T04:52:05;78.00;;;22.87;;
7669;SDS011;3877;42.562;27.636;2024-02-28T04:54:33;84.37;;;23.47;;
7669;SDS011;3877;42.562;27.636;2024-02-28T04:57:00;96.63;;;23.80;;
7669;SDS011;3877;42.562;27.636;2024-02-28T04:59:29;96.43;;;23.73;;
7669;SDS011;3877;42.562;27.636;2024-02-28T05:01:57;105.33;;;24.63;;
7669;SDS011;3877;42.562;27.636;2024-02-28T05:04:24;132.93;;;25.13;;
7669;SDS011;3877;42.562;27.636;2024-02-28T05:06:52;203.43;;;21.60;;
7669;SDS011;3877;42.562;27.636;2024-02-28T05:09:18;201.90;;;21.97;;
7669;SDS011;3877;42.562;27.636;2024-02-28T05:11:46;176.93;;;18.73;;
7669;SDS011;3877;42.562;27.636;2024-02-28T05:14:13;132.73;;;19.87;;
7669;SDS011;3877;42.562;27.636;2024-02-28T05:16:41;117.37;;;18.90;;
7669;SDS011;3877;42.562;27.636;2024-02-28T05:19:08;237.13;;;20.57;;
7669;SDS011;3877;42.562;27.636;2024-02-28T05:21:39;220.30;;;20.87;;
7669;SDS011;3877;42.562;27.636;2024-02-28T05:24:06;126.40;;;20.60;;
7669;SDS011;3877;42.562;27.636;2024-02-28T05:26:34;152.90;;;19.77;;
7669;SDS011;3877;42.562;27.636;2024-02-28T05:29:01;111.13;;;21.70;;
7669;SDS011;3877;42.562;27.636;2024-02-28T05:31:28;213.30;;;22.53;;
7669;SDS011;3877;42.562;27.636;2024-02-28T05:33:58;157.17;;;22.03;;
7669;SDS011;3877;42.562;27.636;2024-02-28T05:36:28;327.77;;;26.43;;
7669;SDS011;3877;42.562;27.636;2024-02-28T05:38:55;143.33;;;25.17;;
7669;SDS011;3877;42.562;27.636;2024-02-28T05:41:22;155.90;;;27.20;;
7669;SDS011;3877;42.562;27.636;2024-02-28T05:43:49;254.83;;;27.47;;
7669;SDS011;3877;42.562;27.636;2024-02-28T05:46:17;190.23;;;25.67;;
7669;SDS011;3877;42.562;27.636;2024-02-28T05:48:44;239.17;;;27.30;;
7669;SDS011;3877;42.562;27.636;2024-02-28T05:51:13;131.60;;;32.53;;
7669;SDS011;3877;42.562;27.636;2024-02-28T05:53:49;149.10;;;31.13;;
7669;SDS011;3877;42.562;27.636;2024-02-28T05:56:18;235.00;;;30.47;;
7669;SDS011;3877;42.562;27.636;2024-02-28T05:58:46;122.70;;;28.00;;
7669;SDS011;3877;42.562;27.636;2024-02-28T06:01:14;117.00;;;24.67;;
7669;SDS011;3877;42.562;27.636;2024-02-28T06:03:42;171.70;;;25.57;;
7669;SDS011;3877;42.562;27.636;2024-02-28T06:06:09;161.07;;;26.00;;
7669;SDS011;3877;42.562;27.636;2024-02-28T06:08:39;108.83;;;21.97;;
7669;SDS011;3877;42.562;27.636;2024-02-28T06:11:06;113.43;;;18.77;;
7669;SDS011;3877;42.562;27.636;2024-02-28T06:13:33;101.47;;;20.53;;
7669;SDS011;3877;42.562;27.636;2024-02-28T06:16:00;100.73;;;20.37;;
7669;SDS011;3877;42.562;27.636;2024-02-28T06:18:28;85.43;;;17.73;;
7669;SDS011;3877;42.562;27.636;2024-02-28T06:20:58;90.37;;;15.87;;
7669;SDS011;3877;42.562;27.636;2024-02-28T06:23:25;222.37;;;17.10;;
7669;SDS011;3877;42.562;27.636;2024-02-28T06:25:54;73.70;;;18.87;;
7669;SDS011;3877;42.562;27.636;2024-02-28T06:28:21;237.07;;;21.00;;
7669;SDS011;3877;42.562;27.636;2024-02-28T06:30:48;91.00;;;18.17;;
7669;SDS011;3877;42.562;27.636;2024-02-28T06:33:15;161.53;;;19.10;;
7669;SDS011;3877;42.562;27.636;2024-02-28T06:35:42;134.30;;;21.30;;
7669;SDS011;3877;42.562;27.636;2024-02-28T06:38:09;90.47;;;21.70;;
7669;SDS011;3877;42.562;27.636;2024-02-28T06:40:36;121.03;;;18.60;;
7669;SDS011;3877;42.562;27.636;2024-02-28T06:43:04;216.97;;;20.20;;
7669;SDS011;3877;42.562;27.636;2024-02-28T06:45:32;186.70;;;18.33;;
7669;SDS011;3877;42.562;27.636;2024-02-28T06:47:59;70.77;;;18.60;;
7669;SDS011;3877;42.562;27.636;2024-02-28T06:50:26;76.63;;;18.53;;
7669;SDS011;3877;42.562;27.636;2024-02-28T06:52:53;89.40;;;18.67;;
7669;SDS011;3877;42.562;27.636;2024-02-28T06:55:20;62.73;;;17.10;;
7669;SDS011;3877;42.562;27.636;2024-02-28T06:57:47;68.67;;;16.50;;
7669;SDS011;3877;42.562;27.636;2024-02-28T07:00:16;65.33;;;18.33;;
7669;SDS011;3877;42.562;27.636;2024-02-28T07:02:44;56.33;;;17.20;;
7669;SDS011;3877;42.562;27.636;2024-02-28T07:05:11;58.97;;;18.33;;
7669;SDS011;3877;42.562;27.636;2024-02-28T07:07:38;49.83;;;18.90;;
7669;SDS011;3877;42.562;27.636;2024-02-28T07:10:05;50.77;;;19.53;;
7669;SDS011;3877;42.562;27.636;2024-02-28T07:12:32;59.87;;;19.93;;
7669;SDS011;3877;42.562;27.636;2024-02-28T07:14:59;92.80;;;17.83;;
7669;SDS011;3877;42.562;27.636;2024-02-28T07:17:27;54.93;;;18.03;;
7669;SDS011;3877;42.562;27.636;2024-02-28T07:19:54;59.53;;;20.73;;
7669;SDS011;3877;42.562;27.636;2024-02-28T07:22:22;53.47;;;21.23;;
7669;SDS011;3877;42.562;27.636;2024-02-28T07:24:48;79.37;;;25.00;;
7669;SDS011;3877;42.562;27.636;2024-02-28T07:27:16;81.70;;;24.63;;
7669;SDS011;3877;42.562;27.636;2024-02-28T07:29:43;62.53;;;22.37;;
7669;SDS011;3877;42.562;27.636;2024-02-28T07:32:10;57.40;;;23.10;;
7669;SDS011;3877;42.562;27.636;2024-02-28T07:34:39;93.37;;;24.93;;
7669;SDS011;3877;42.562;27.636;2024-02-28T07:37:06;88.33;;;25.37;;
7669;SDS011;3877;42.562;27.636;2024-02-28T07:39:33;79.50;;;25.90;;
7669;SDS011;3877;42.562;27.636;2024-02-28T07:42:00;61.77;;;25.30;;
7669;SDS011;3877;42.562;27.636;2024-02-28T07:44:27;78.93;;;25.00;;
7669;SDS011;3877;42.562;27.636;2024-02-28T07:46:56;96.33;;;28.23;;
7669;SDS011;3877;42.562;27.636;2024-02-28T07:49:23;90.47;;;25.57;;
7669;SDS011;3877;42.562;27.636;2024-02-28T07:51:51;78.23;;;26.50;;
7669;SDS011;3877;42.562;27.636;2024-02-28T07:54:18;109.70;;;26.23;;
7669;SDS011;3877;42.562;27.636;2024-02-28T07:56:45;75.13;;;24.23;;
7669;SDS011;3877;42.562;27.636;2024-02-28T07:59:12;63.07;;;23.93;;
7669;SDS011;3877;42.562;27.636;2024-02-28T08:01:39;80.27;;;28.90;;
7669;SDS011;3877;42.562;27.636;2024-02-28T08:04:06;80.83;;;30.17;;
7669;SDS011;3877;42.562;27.636;2024-02-28T08:06:33;74.27;;;25.10;;
7669;SDS011;3877;42.562;27.636;2024-02-28T08:09:02;49.30;;;22.63;;
7669;SDS011;3877;42.562;27.636;2024-02-28T08:11:29;43.53;;;21.00;;
7669;SDS011;3877;42.562;27.636;2024-02-28T08:13:56;39.10;;;20.27;;
7669;SDS011;3877;42.562;27.636;2024-02-28T08:16:23;46.53;;;20.50;;
7669;SDS011;3877;42.562;27.636;2024-02-28T08:18:50;41.87;;;18.73;;
7669;SDS011;3877;42.562;27.636;2024-02-28T08:21:17;44.37;;;18.73;;
7669;SDS011;3877;42.562;27.636;2024-02-28T08:23:45;39.27;;;17.53;;
7669;SDS011;3877;42.562;27.636;2024-02-28T08:26:14;41.57;;;17.67;;
7669;SDS011;3877;42.562;27.636;2024-02-28T08:28:41;40.50;;;18.30;;
7669;SDS011;3877;42.562;27.636;2024-02-28T08:31:08;42.77;;;18.43;;
7669;SDS011;3877;42.562;27.636;2024-02-28T08:33:35;43.67;;;18.53;;
7669;SDS011;3877;42.562;27.636;2024-02-28T08:36:03;49.00;;;21.67;;
7669;SDS011;3877;42.562;27.636;2024-02-28T08:38:30;31.13;;;15.47;;
7669;SDS011;3877;42.562;27.636;2024-02-28T08:40:56;31.97;;;15.20;;
7669;SDS011;3877;42.562;27.636;2024-02-28T08:43:25;34.87;;;16.97;;
7669;SDS011;3877;42.562;27.636;2024-02-28T08:45:52;35.70;;;15.20;;
7669;SDS011;3877;42.562;27.636;2024-02-28T08:48:21;30.40;;;14.43;;
7669;SDS011;3877;42.562;27.636;2024-02-28T08:50:48;24.63;;;11.93;;
7669;SDS011;3877;42.562;27.636;2024-02-28T08:53:15;28.43;;;11.80;;
7669;SDS011;3877;42.562;27.636;2024-02-28T08:55:42;27.60;;;13.87;;
7669;SDS011;3877;42.562;27.636;2024-02-28T08:58:09;25.57;;;11.87;;
7669;SDS011;3877;42.562;27.636;2024-02-28T09:00:37;18.80;;;9.63;;
7669;SDS011;3877;42.562;27.636;2024-02-28T09:03:05;21.40;;;11.07;;
7669;SDS011;3877;42.562;27.636;2024-02-28T09:05:32;19.17;;;9.30;;
7669;SDS011;3877;42.562;27.636;2024-02-28T09:07:59;25.10;;;10.33;;
7669;SDS011;3877;42.562;27.636;2024-02-28T09:10:27;17.30;;;7.90;;
7669;SDS011;3877;42.562;27.636;2024-02-28T09:12:56;22.87;;;10.13;;
7669;SDS011;3877;42.562;27.636;2024-02-28T09:15:23;23.03;;;10.97;;
7669;SDS011;3877;42.562;27.636;2024-02-28T09:17:52;22.60;;;9.60;;
7669;SDS011;3877;42.562;27.636;2024-02-28T09:20:19;20.03;;;10.43;;
7669;SDS011;3877;42.562;27.636;2024-02-28T09:22:46;25.20;;;10.47;;
7669;SDS011;3877;42.562;27.636;2024-02-28T09:25:13;24.43;;;11.03;;
7669;SDS011;3877;42.562;27.636;2024-02-28T09:27:41;26.33;;;12.83;;
7669;SDS011;3877;42.562;27.636;2024-02-28T09:30:08;27.37;;;11.30;;
7669;SDS011;3877;42.562;27.636;2024-02-28T09:32:35;27.13;;;12.77;;
7669;SDS011;3877;42.562;27.636;2024-02-28T09:35:04;22.97;;;11.47;;
7669;SDS011;3877;42.562;27.636;2024-02-28T09:37:32;25.00;;;12.17;;
7669;SDS011;3877;42.562;27.636;2024-02-28T09:39:59;37.43;;;13.20;;
7669;SDS011;3877;42.562;27.636;2024-02-28T09:42:27;28.80;;;12.57;;
7669;SDS011;3877;42.562;27.636;2024-02-28T09:44:54;24.40;;;13.30;;
7669;SDS011;3877;42.562;27.636;2024-02-28T09:47:21;22.57;;;10.50;;
7669;SDS011;3877;42.562;27.636;2024-02-28T09:49:50;25.97;;;11.80;;
7669;SDS011;3877;42.562;27.636;2024-02-28T09:52:19;27.33;;;12.37;;
7669;SDS011;3877;42.562;27.636;2024-02-28T09:54:46;28.70;;;12.23;;
7669;SDS011;3877;42.562;27.636;2024-02-28T09:57:13;27.57;;;13.27;;
7669;SDS011;3877;42.562;27.636;2024-02-28T09:59:40;25.00;;;11.60;;
7669;SDS011;3877;42.562;27.636;2024-02-28T10:02:08;29.30;;;13.80;;
7669;SDS011;3877;42.562;27.636;2024-02-28T10:04:36;34.60;;;15.30;;
7669;SDS011;3877;42.562;27.636;2024-02-28T10:07:10;27.10;;;12.07;;
7669;SDS011;3877;42.562;27.636;2024-02-28T10:09:39;16.67;;;7.57;;
7669;SDS011;3877;42.562;27.636;2024-02-28T10:12:06;28.27;;;8.80;;
7669;SDS011;3877;42.562;27.636;2024-02-28T10:14:33;18.97;;;7.63;;
7669;SDS011;3877;42.562;27.636;2024-02-28T10:17:00;16.10;;;8.13;;
7669;SDS011;3877;42.562;27.636;2024-02-28T10:19:27;14.33;;;7.23;;
7669;SDS011;3877;42.562;27.636;2024-02-28T10:21:55;21.67;;;7.00;;
7669;SDS011;3877;42.562;27.636;2024-02-28T10:24:23;13.33;;;6.33;;
7669;SDS011;3877;42.562;27.636;2024-02-28T10:26:52;17.97;;;6.67;;
7669;SDS011;3877;42.562;27.636;2024-02-28T10:29:22;21.30;;;8.77;;
7669;SDS011;3877;42.562;27.636;2024-02-28T10:31:49;22.50;;;6.93;;
7669;SDS011;3877;42.562;27.636;2024-02-28T10:34:16;21.97;;;7.50;;
7669;SDS011;3877;42.562;27.636;2024-02-28T10:36:42;18.87;;;6.93;;
7669;SDS011;3877;42.562;27.636;2024-02-28T10:39:11;17.07;;;7.07;;
7669;SDS011;3877;42.562;27.636;2024-02-28T10:41:38;20.07;;;6.57;;
7669;SDS011;3877;42.562;27.636;2024-02-28T10:44:06;21.03;;;7.23;;
7669;SDS011;3877;42.562;27.636;2024-02-28T10:46:33;23.93;;;8.20;;
7669;SDS011;3877;42.562;27.636;2024-02-28T10:49:04;27.03;;;7.10;;
7669;SDS011;3877;42.562;27.636;2024-02-28T10:51:32;16.70;;;6.53;;
7669;SDS011;3877;42.562;27.636;2024-02-28T10:54:04;22.13;;;8.53;;
7669;SDS011;3877;42.562;27.636;2024-02-28T10:56:51;18.93;;;6.27;;
7669;SDS011;3877;42.562;27.636;2024-02-28T10:59:19;23.70;;;7.30;;
7669;SDS011;3877;42.562;27.636;2024-02-28T11:01:47;28.57;;;8.57;;
7669;SDS011;3877;42.562;27.636;2024-02-28T11:04:15;24.80;;;7.90;;
7669;SDS011;3877;42.562;27.636;2024-02-28T11:06:48;20.00;;;8.73;;
7669;SDS011;3877;42.562;27.636;2024-02-28T11:09:19;39.90;;;10.50;;
7669;SDS011;3877;42.562;27.636;2024-02-28T11:11:48;38.67;;;9.90;;
7669;SDS011;3877;42.562;27.636;2024-02-28T11:14:16;22.50;;;6.87;;
7669;SDS011;3877;42.562;27.636;2024-02-28T11:16:44;18.13;;;7.57;;
7669;SDS011;3877;42.562;27.636;2024-02-28T11:19:18;16.60;;;6.10;;
7669;SDS011;3877;42.562;27.636;2024-02-28T11:21:46;19.03;;;7.67;;
7669;SDS011;3877;42.562;27.636;2024-02-28T11:24:22;24.27;;;7.27;;
7669;SDS011;3877;42.562;27.636;2024-02-28T11:26:49;22.03;;;7.50;;
7669;SDS011;3877;42.562;27.636;2024-02-28T11:29:21;22.73;;;6.77;;
7669;SDS011;3877;42.562;27.636;2024-02-28T11:31:49;28.43;;;8.27;;
7669;SDS011;3877;42.562;27.636;2024-02-28T11:34:20;25.37;;;8.87;;
7669;SDS011;3877;42.562;27.636;2024-02-28T11:36:51;31.93;;;8.93;;
7669;SDS011;3877;42.562;27.636;2024-02-28T11:39:18;28.27;;;8.47;;
7669;SDS011;3877;42.562;27.636;2024-02-28T11:41:46;26.93;;;8.10;;
7669;SDS011;3877;42.562;27.636;2024-02-28T11:44:15;24.70;;;7.70;;
7669;SDS011;3877;42.562;27.636;2024-02-28T11:46:45;32.33;;;9.40;;
7669;SDS011;3877;42.562;27.636;2024-02-28T11:49:13;20.03;;;6.77;;
7669;SDS011;3877;42.562;27.636;2024-02-28T11:51:41;11.70;;;6.07;;
7669;SDS011;3877;42.562;27.636;2024-02-28T11:54:08;20.37;;;7.07;;
7669;SDS011;3877;42.562;27.636;2024-02-28T11:56:36;17.73;;;7.70;;
7669;SDS011;3877;42.562;27.636;2024-02-28T11:59:03;14.87;;;7.00;;
7669;SDS011;3877;42.562;27.636;2024-02-28T12:01:34;13.83;;;6.23;;
7669;SDS011;3877;42.562;27.636;2024-02-28T12:04:02;16.73;;;6.27;;
7669;SDS011;3877;42.562;27.636;2024-02-28T12:06:31;14.00;;;5.80;;
7669;SDS011;3877;42.562;27.636;2024-02-28T12:08:58;8.97;;;5.00;;
7669;SDS011;3877;42.562;27.636;2024-02-28T12:11:25;17.57;;;6.57;;
7669;SDS011;3877;42.562;27.636;2024-02-28T12:13:53;15.67;;;7.43;;
7669;SDS011;3877;42.562;27.636;2024-02-28T12:16:22;15.03;;;5.60;;
7669;SDS011;3877;42.562;27.636;2024-02-28T12:18:48;13.13;;;5.93;;
7669;SDS011;3877;42.562;27.636;2024-02-28T12:21:16;14.50;;;6.13;;
7669;SDS011;3877;42.562;27.636;2024-02-28T12:23:44;15.60;;;5.37;;
7669;SDS011;3877;42.562;27.636;2024-02-28T12:26:11;9.93;;;4.87;;
7669;SDS011;3877;42.562;27.636;2024-02-28T12:28:39;11.47;;;5.90;;
7669;SDS011;3877;42.562;27.636;2024-02-28T12:31:06;14.53;;;7.40;;
7669;SDS011;3877;42.562;27.636;2024-02-28T12:33:35;19.27;;;6.53;;
7669;SDS011;3877;42.562;27.636;2024-02-28T12:36:02;18.47;;;6.97;;
7669;SDS011;3877;42.562;27.636;2024-02-28T12:38:29;11.23;;;6.03;;
7669;SDS011;3877;42.562;27.636;2024-02-28T12:40:58;13.77;;;6.63;;
7669;SDS011;3877;42.562;27.636;2024-02-28T12:43:25;23.23;;;9.93;;
7669;SDS011;3877;42.562;27.636;2024-02-28T12:45:52;19.37;;;8.37;;
7669;SDS011;3877;42.562;27.636;2024-02-28T12:48:19;16.33;;;6.80;;
7669;SDS011;3877;42.562;27.636;2024-02-28T12:50:46;19.17;;;7.47;;
7669;SDS011;3877;42.562;27.636;2024-02-28T12:53:13;14.60;;;8.03;;
7669;SDS011;3877;42.562;27.636;2024-02-28T12:55:41;20.63;;;8.07;;
7669;SDS011;3877;42.562;27.636;2024-02-28T12:58:11;21.93;;;7.87;;
7669;SDS011;3877;42.562;27.636;2024-02-28T13:00:37;27.53;;;9.03;;
7669;SDS011;3877;42.562;27.636;2024-02-28T13:03:05;24.03;;;10.43;;
7669;SDS011;3877;42.562;27.636;2024-02-28T13:05:32;22.57;;;10.13;;
7669;SDS011;3877;42.562;27.636;2024-02-28T13:07:59;27.33;;;9.17;;
7669;SDS011;3877;42.562;27.636;2024-02-28T13:10:26;25.80;;;9.97;;
7669;SDS011;3877;42.562;27.636;2024-02-28T13:12:53;27.07;;;9.07;;
7669;SDS011;3877;42.562;27.636;2024-02-28T13:15:22;27.37;;;9.07;;
7669;SDS011;3877;42.562;27.636;2024-02-28T13:17:49;20.60;;;8.70;;
7669;SDS011;3877;42.562;27.636;2024-02-28T13:20:17;25.17;;;10.30;;
7669;SDS011;3877;42.562;27.636;2024-02-28T13:22:44;31.27;;;11.40;;
7669;SDS011;3877;42.562;27.636;2024-02-28T13:25:11;24.23;;;9.40;;
7669;SDS011;3877;42.562;27.636;2024-02-28T13:27:40;27.70;;;9.93;;
7669;SDS011;3877;42.562;27.636;2024-02-28T13:30:07;22.47;;;10.43;;
7669;SDS011;3877;42.562;27.636;2024-02-28T13:32:35;22.17;;;8.30;;
7669;SDS011;3877;42.562;27.636;2024-02-28T13:35:02;25.77;;;8.80;;
7669;SDS011;3877;42.562;27.636;2024-02-28T13:37:29;22.47;;;8.13;;
7669;SDS011;3877;42.562;27.636;2024-02-28T13:39:57;27.73;;;8.60;;
7669;SDS011;3877;42.562;27.636;2024-02-28T13:42:25;29.93;;;9.20;;
7669;SDS011;3877;42.562;27.636;2024-02-28T13:44:52;24.10;;;8.87;;
7669;SDS011;3877;42.562;27.636;2024-02-28T13:47:18;16.07;;;8.10;;
7669;SDS011;3877;42.562;27.636;2024-02-28T13:49:47;29.73;;;15.07;;
7669;SDS011;3877;42.562;27.636;2024-02-28T13:52:15;24.80;;;8.80;;
7669;SDS011;3877;42.562;27.636;2024-02-28T13:54:42;24.90;;;10.90;;
7669;SDS011;3877;42.562;27.636;2024-02-28T13:57:11;27.40;;;11.50;;
7669;SDS011;3877;42.562;27.636;2024-02-28T13:59:37;31.23;;;11.13;;
7669;SDS011;3877;42.562;27.636;2024-02-28T14:02:05;30.67;;;12.77;;
7669;SDS011;3877;42.562;27.636;2024-02-28T14:04:34;29.43;;;11.93;;
7669;SDS011;3877;42.562;27.636;2024-02-28T14:07:02;32.73;;;12.87;;
7669;SDS011;3877;42.562;27.636;2024-02-28T14:09:29;34.07;;;14.80;;
7669;SDS011;3877;42.562;27.636;2024-02-28T14:11:56;32.10;;;14.10;;
7669;SDS011;3877;42.562;27.636;2024-02-28T14:14:23;35.23;;;13.83;;
7669;SDS011;3877;42.562;27.636;2024-02-28T14:16:50;23.43;;;12.77;;
7669;SDS011;3877;42.562;27.636;2024-02-28T14:19:18;19.80;;;11.27;;
7669;SDS011;3877;42.562;27.636;2024-02-28T14:21:45;26.13;;;11.40;;
7669;SDS011;3877;42.562;27.636;2024-02-28T14:24:13;29.07;;;13.57;;
7669;SDS011;3877;42.562;27.636;2024-02-28T14:26:45;31.70;;;13.47;;
7669;SDS011;3877;42.562;27.636;2024-02-28T14:29:12;24.53;;;11.93;;
7669;SDS011;3877;42.562;27.636;2024-02-28T14:31:39;33.83;;;13.97;;
7669;SDS011;3877;42.562;27.636;2024-02-28T14:34:07;27.37;;;12.53;;
7669;SDS011;3877;42.562;27.636;2024-02-28T14:36:34;32.43;;;16.00;;
7669;SDS011;3877;42.562;27.636;2024-02-28T14:39:01;33.83;;;17.27;;